createdAt,value
2017-08-04T00:02:17.024Z,20.30
2017-08-04T00:04:45.302Z,20.30
2017-08-04T00:07:13.580Z,20.30
2017-08-04T00:09:42.258Z,20.30
2017-08-04T00:12:10.534Z,20.30
2017-08-04T00:14:38.806Z,20.20
2017-08-04T00:17:07.104Z,20.20
2017-08-04T00:19:35.417Z,20.20
2017-08-04T00:22:05.368Z,20.20
2017-08-04T00:24:33.708Z,20.20
2017-08-04T00:27:01.994Z,20.30
2017-08-04T00:29:30.303Z,20.30
2017-08-04T00:31:58.575Z,20.40
2017-08-04T00:34:27.133Z,20.40
2017-08-04T00:36:55.443Z,20.50
2017-08-04T00:39:24.505Z,20.50
2017-08-04T00:41:52.898Z,20.50
2017-08-04T00:44:21.372Z,20.60
2017-08-04T00:46:49.952Z,20.50
2017-08-04T00:49:18.265Z,20.50
2017-08-04T00:51:48.299Z,20.40
2017-08-04T00:54:16.650Z,20.40
2017-08-04T00:56:45.040Z,20.40
2017-08-04T00:59:13.522Z,20.50
2017-08-04T01:01:41.837Z,20.40
2017-08-04T01:04:10.917Z,20.50
2017-08-04T01:06:39.201Z,20.50
2017-08-04T01:09:07.576Z,20.50
2017-08-04T01:11:36.150Z,20.50
2017-08-04T01:14:08.132Z,20.50
2017-08-04T01:16:36.611Z,20.50
2017-08-04T01:19:04.915Z,20.40
2017-08-04T01:21:33.994Z,20.40
2017-08-04T01:24:02.333Z,20.40
2017-08-04T01:26:30.601Z,20.40
2017-08-04T01:28:59.244Z,20.40
2017-08-04T01:31:28.050Z,20.40
2017-08-04T01:33:56.419Z,20.40
2017-08-04T01:36:24.692Z,20.40
2017-08-04T01:38:53.553Z,20.40
2017-08-04T01:41:21.956Z,20.50
2017-08-04T01:43:50.729Z,20.50
2017-08-04T01:46:19.018Z,20.50
2017-08-04T01:48:47.387Z,20.50
2017-08-04T01:51:16.452Z,20.60
2017-08-04T01:53:44.897Z,20.60
2017-08-04T01:56:13.195Z,20.60
2017-08-04T01:58:41.480Z,20.60
2017-08-04T02:01:09.795Z,20.60
2017-08-04T02:03:38.099Z,20.60
2017-08-04T02:06:06.748Z,20.60
2017-08-04T02:08:35.024Z,20.60
2017-08-04T02:11:03.352Z,20.70
2017-08-04T02:13:31.691Z,20.70
2017-08-04T02:15:59.995Z,20.70
2017-08-04T02:18:28.635Z,20.70
2017-08-04T02:20:56.932Z,20.70
2017-08-04T02:23:25.223Z,20.60
2017-08-04T02:25:53.606Z,20.60
2017-08-04T02:28:25.085Z,20.60
2017-08-04T02:30:54.448Z,20.50
2017-08-04T02:33:22.744Z,20.50
2017-08-04T02:35:51.114Z,20.50
2017-08-04T02:38:19.408Z,20.50
2017-08-04T02:40:47.696Z,20.50
2017-08-04T02:43:16.162Z,20.40
2017-08-04T02:45:44.456Z,20.40
2017-08-04T02:48:12.753Z,20.40
2017-08-04T02:50:41.073Z,20.40
2017-08-04T02:53:09.430Z,20.40
2017-08-04T02:55:39.549Z,20.30
2017-08-04T02:58:07.826Z,20.30
2017-08-04T03:00:36.890Z,20.30
2017-08-04T03:03:05.174Z,20.30
2017-08-04T03:05:33.470Z,20.30
2017-08-04T03:08:02.128Z,20.30
2017-08-04T03:10:30.403Z,20.30
2017-08-04T03:13:00.183Z,20.30
2017-08-04T03:15:29.272Z,20.10
2017-08-04T03:17:58.142Z,20.10
2017-08-04T03:20:26.569Z,20.10
2017-08-04T03:22:55.911Z,19.90
2017-08-04T03:25:24.172Z,19.90
2017-08-04T03:27:52.493Z,19.80
2017-08-04T03:30:20.792Z,19.80
2017-08-04T03:32:49.264Z,19.80
2017-08-04T03:35:17.544Z,19.80
2017-08-04T03:37:45.835Z,19.80
2017-08-04T03:40:14.210Z,19.70
2017-08-04T03:42:42.525Z,19.70
2017-08-04T03:45:12.708Z,19.70
2017-08-04T03:47:40.979Z,19.60
2017-08-04T03:50:09.292Z,19.60
2017-08-04T03:52:37.652Z,19.70
2017-08-04T03:55:05.923Z,19.70
2017-08-04T03:57:34.550Z,19.70
2017-08-04T04:00:02.934Z,19.70
2017-08-04T04:02:31.194Z,19.70
2017-08-04T04:04:59.509Z,19.70
2017-08-04T04:07:27.858Z,19.80
2017-08-04T04:09:56.525Z,19.80
2017-08-04T04:12:25.318Z,19.80
2017-08-04T04:14:53.630Z,19.80
2017-08-04T04:17:22.209Z,19.80
2017-08-04T04:19:50.487Z,19.70
2017-08-04T04:22:18.780Z,19.70
2017-08-04T04:24:47.080Z,19.70
2017-08-04T04:27:16.279Z,19.60
2017-08-04T04:29:44.553Z,19.70
2017-08-04T04:32:12.840Z,19.70
2017-08-04T04:34:41.125Z,19.70
2017-08-04T04:37:09.804Z,19.70
2017-08-04T04:39:38.089Z,19.70
2017-08-04T04:42:07.349Z,19.70
2017-08-04T04:44:35.657Z,19.80
2017-08-04T04:47:03.971Z,19.80
2017-08-04T04:49:32.457Z,19.90
2017-08-04T04:52:00.760Z,19.80
2017-08-04T04:54:31.114Z,19.80
2017-08-04T04:56:59.438Z,19.80
2017-08-04T04:59:27.723Z,19.90
2017-08-04T05:01:56.341Z,20.00
2017-08-04T05:04:25.515Z,20.10
2017-08-04T05:06:53.792Z,20.10
2017-08-04T05:09:22.302Z,20.20
2017-08-04T05:11:51.371Z,20.40
2017-08-04T05:14:20.011Z,20.30
2017-08-04T05:16:49.052Z,20.50
2017-08-04T05:19:17.358Z,20.50
2017-08-04T05:21:46.032Z,20.60
2017-08-04T05:24:14.341Z,20.70
2017-08-04T05:26:43.723Z,20.90
2017-08-04T05:29:12.574Z,20.90
2017-08-04T05:31:40.892Z,21.00
2017-08-04T05:34:09.882Z,21.10
2017-08-04T05:36:38.172Z,21.20
2017-08-04T05:39:07.531Z,21.20
2017-08-04T05:41:35.884Z,21.40
2017-08-04T05:44:04.922Z,21.40
2017-08-04T05:46:34.477Z,21.40
2017-08-04T05:49:04.008Z,21.50
2017-08-04T05:51:34.685Z,21.60
2017-08-04T05:54:03.889Z,21.60
2017-08-04T05:56:32.197Z,21.50
2017-08-04T05:59:00.473Z,21.50
2017-08-04T06:01:28.907Z,21.50
2017-08-04T06:03:58.248Z,21.40
2017-08-04T06:06:26.574Z,21.40
2017-08-04T06:08:54.892Z,21.40
2017-08-04T06:11:23.196Z,21.50
2017-08-04T06:13:51.507Z,21.60
2017-08-04T06:16:20.204Z,21.60
2017-08-04T06:18:48.519Z,21.60
2017-08-04T06:21:17.838Z,21.40
2017-08-04T06:23:46.194Z,21.40
2017-08-04T06:26:15.864Z,21.50
2017-08-04T06:28:44.464Z,21.60
2017-08-04T06:31:12.747Z,21.60
2017-08-04T06:33:41.873Z,21.70
2017-08-04T06:36:10.328Z,21.90
2017-08-04T06:38:38.624Z,22.00
2017-08-04T06:41:07.559Z,22.00
2017-08-04T06:43:35.992Z,22.10
2017-08-04T06:46:04.297Z,22.30
2017-08-04T06:48:44.496Z,22.60
2017-08-04T06:51:24.683Z,22.60
2017-08-04T06:54:13.716Z,22.70
2017-08-04T06:56:43.150Z,22.70
2017-08-04T06:59:12.051Z,22.70
2017-08-04T07:01:40.377Z,22.70
2017-08-04T07:04:08.668Z,22.80
2017-08-04T07:06:37.011Z,22.90
2017-08-04T07:09:05.312Z,22.90
2017-08-04T07:11:34.867Z,22.90
2017-08-04T07:14:03.162Z,22.90
2017-08-04T07:16:31.428Z,23.00
2017-08-04T07:18:59.714Z,23.20
2017-08-04T07:21:28.002Z,23.20
2017-08-04T07:23:56.596Z,23.20
2017-08-04T07:26:24.900Z,23.30
2017-08-04T07:28:54.692Z,23.30
2017-08-04T07:31:23.065Z,23.30
2017-08-04T07:33:51.373Z,23.40
2017-08-04T07:36:24.885Z,23.40
2017-08-04T07:38:54.303Z,23.60
2017-08-04T07:41:22.698Z,23.60
2017-08-04T07:43:51.014Z,23.70
2017-08-04T07:46:19.288Z,23.90
2017-08-04T07:48:47.885Z,24.00
2017-08-04T07:51:16.162Z,24.10
2017-08-04T07:53:44.451Z,24.40
2017-08-04T07:56:12.783Z,24.40
2017-08-04T07:58:41.922Z,24.50
2017-08-04T08:01:10.604Z,24.50
2017-08-04T08:03:38.906Z,24.50
2017-08-04T08:06:07.195Z,24.50
2017-08-04T08:08:35.598Z,24.30
2017-08-04T08:11:04.039Z,24.30
2017-08-04T08:13:32.596Z,24.10
2017-08-04T08:16:00.942Z,24.00
2017-08-04T08:18:29.266Z,24.20
2017-08-04T08:20:58.357Z,24.30
2017-08-04T08:23:26.647Z,24.20
2017-08-04T08:25:55.089Z,24.30
2017-08-04T08:28:23.401Z,24.10
2017-08-04T08:30:51.689Z,24.20
2017-08-04T08:33:20.873Z,24.60
2017-08-04T08:35:49.960Z,24.90
2017-08-04T08:38:18.565Z,24.80
2017-08-04T08:40:47.468Z,25.10
2017-08-04T08:43:15.794Z,25.00
2017-08-04T08:45:44.102Z,25.00
2017-08-04T08:48:12.400Z,25.20
2017-08-04T08:50:40.964Z,25.30
2017-08-04T08:53:09.268Z,25.60
2017-08-04T10:05:31.826Z,25.70
2017-08-04T10:08:00.901Z,25.50
2017-08-04T10:10:29.984Z,25.40
2017-08-04T10:12:58.272Z,25.40
2017-08-04T10:15:27.059Z,25.80
2017-08-04T10:17:55.384Z,26.30
2017-08-04T10:20:23.747Z,26.60
2017-08-04T10:22:52.834Z,26.80
2017-08-04T10:25:21.117Z,26.80
2017-08-04T10:27:49.710Z,27.10
2017-08-04T10:30:18.781Z,27.40
2017-08-04T10:32:47.596Z,27.40
2017-08-04T10:35:17.089Z,27.60
2017-08-04T10:37:45.427Z,27.60
2017-08-04T10:40:14.095Z,27.60
2017-08-04T10:42:42.466Z,28.40
2017-08-04T10:45:10.737Z,28.50
2017-08-04T10:47:39.125Z,28.40
2017-08-04T10:50:07.418Z,28.40
2017-08-04T10:52:36.601Z,28.50
2017-08-04T10:55:04.937Z,28.50
2017-08-04T10:57:33.223Z,28.40
2017-08-04T11:00:01.548Z,28.80
2017-08-04T11:02:29.850Z,29.10
2017-08-04T11:04:59.138Z,28.70
2017-08-04T11:07:27.452Z,28.80
2017-08-04T11:09:55.743Z,29.80
2017-08-04T11:12:25.209Z,31.20
2017-08-04T11:14:56.325Z,31.10
2017-08-04T11:17:24.933Z,30.90
2017-08-04T11:19:54.408Z,31.20
2017-08-04T11:22:22.729Z,31.20
2017-08-04T11:24:51.051Z,31.50
2017-08-04T11:27:19.340Z,31.50
2017-08-04T11:29:47.958Z,31.50
2017-08-04T11:32:16.386Z,32.30
2017-08-04T11:34:47.254Z,31.90
2017-08-04T11:37:15.561Z,31.90
2017-08-04T11:39:45.037Z,30.40
2017-08-04T11:42:15.227Z,29.70
2017-08-04T11:44:44.217Z,29.70
2017-08-04T11:47:14.126Z,29.40
2017-08-04T11:49:42.523Z,29.40
2017-08-04T11:52:10.836Z,29.90
2017-08-04T11:54:39.187Z,30.60
2017-08-04T11:57:14.319Z,30.60
2017-08-04T11:59:44.186Z,31.60
2017-08-04T12:02:12.482Z,31.60
2017-08-04T12:04:41.898Z,31.00
2017-08-04T12:07:11.746Z,30.70
2017-08-04T12:09:40.021Z,30.70
2017-08-04T12:12:08.388Z,30.50
2017-08-04T12:14:38.998Z,29.80
2017-08-04T12:17:07.371Z,29.80
2017-08-04T12:19:37.192Z,29.80
2017-08-04T12:24:35.359Z,29.30
2017-08-04T12:27:03.687Z,29.40
2017-08-04T12:29:32.336Z,29.10
2017-08-04T12:32:01.277Z,28.70
2017-08-04T12:34:29.673Z,28.20
2017-08-04T12:36:59.155Z,27.70
2017-08-04T12:39:29.411Z,30.30
2017-08-04T12:42:00.030Z,31.70
2017-08-04T12:44:28.352Z,31.70
2017-08-04T12:46:56.693Z,31.20
2017-08-04T12:49:25.295Z,30.60
2017-08-04T12:51:54.687Z,30.50
2017-08-04T12:54:23.639Z,30.40
2017-08-04T12:56:52.721Z,30.70
2017-08-04T12:59:21.022Z,30.70
2017-08-04T13:01:49.698Z,30.50
2017-08-04T13:04:17.985Z,30.80
2017-08-04T13:06:47.809Z,34.60
2017-08-04T13:09:16.190Z,34.60
2017-08-04T13:11:46.012Z,35.00
2017-08-04T13:14:15.411Z,33.60
2017-08-04T13:16:43.719Z,33.50
2017-08-04T13:19:13.129Z,33.40
2017-08-04T13:21:41.453Z,33.30
2017-08-04T13:29:10.570Z,32.00
2017-08-04T13:31:39.534Z,32.90
2017-08-04T13:34:08.157Z,33.40
2017-08-04T13:36:36.490Z,33.30
2017-08-04T13:39:04.826Z,33.20
2017-08-04T13:46:33.599Z,31.90
2017-08-04T13:51:31.800Z,32.90
2017-08-04T13:54:00.070Z,33.50
2017-08-04T13:56:29.914Z,34.80
2017-08-04T13:58:58.534Z,34.70
2017-08-04T14:01:26.987Z,35.60
2017-08-04T14:03:55.350Z,35.50
2017-08-04T14:06:24.815Z,32.20
2017-08-04T14:08:53.489Z,32.20
2017-08-04T14:11:22.760Z,32.00
2017-08-04T14:13:51.058Z,31.90
2017-08-04T14:16:20.674Z,30.90
2017-08-04T14:18:49.026Z,29.80
2017-08-04T14:21:17.832Z,30.10
2017-08-04T14:23:46.973Z,29.90
2017-08-04T14:26:16.019Z,30.60
2017-08-04T14:28:44.340Z,30.60
2017-08-04T14:31:13.021Z,31.40
2017-08-04T14:36:12.087Z,32.20
2017-08-04T14:38:40.729Z,32.20
2017-08-04T14:41:09.041Z,33.10
2017-08-04T14:46:07.553Z,34.60
2017-08-04T14:48:35.897Z,35.40
2017-08-04T14:51:04.190Z,36.10
2017-08-04T14:53:34.631Z,34.60
2017-08-04T14:56:03.702Z,33.60
2017-08-04T15:03:32.481Z,30.70
2017-08-04T15:06:00.808Z,30.40
2017-08-04T15:08:29.411Z,29.90
2017-08-04T15:10:57.741Z,30.40
2017-08-04T15:13:26.020Z,29.80
2017-08-04T15:15:54.625Z,29.30
2017-08-04T15:18:23.077Z,29.10
2017-08-04T15:20:53.133Z,28.40
2017-08-04T15:23:22.795Z,28.30
2017-08-04T15:25:51.886Z,28.90
2017-08-04T15:28:20.180Z,29.50
2017-08-04T15:30:49.082Z,30.30
2017-08-04T15:33:17.413Z,29.80
2017-08-04T15:35:46.848Z,28.90
2017-08-04T15:38:16.367Z,28.70
2017-08-04T15:40:44.633Z,28.70
2017-08-04T15:43:12.965Z,28.70
2017-08-04T15:45:43.862Z,29.60
2017-08-04T15:48:13.312Z,29.00
2017-08-04T15:50:41.653Z,29.00
2017-08-04T15:53:10.300Z,28.40
2017-08-04T15:55:38.861Z,27.70
2017-08-04T15:58:07.896Z,27.40
2017-08-04T16:00:37.031Z,27.70
2017-08-04T16:03:06.513Z,27.50
2017-08-04T16:05:34.833Z,27.50
2017-08-04T16:08:03.148Z,27.20
2017-08-04T16:10:32.432Z,27.00
2017-08-04T16:13:01.090Z,26.90
2017-08-04T16:15:29.432Z,26.90
2017-08-04T16:17:58.888Z,26.70
2017-08-04T16:20:27.179Z,26.70
2017-08-04T16:22:57.297Z,26.70
2017-08-04T16:25:25.588Z,26.70
2017-08-04T16:27:54.672Z,26.80
2017-08-04T16:30:23.370Z,26.70
2017-08-04T16:32:52.414Z,26.50
2017-08-04T16:35:21.883Z,26.50
2017-08-04T16:37:51.227Z,26.40
2017-08-04T16:40:19.548Z,26.30
2017-08-04T16:42:48.699Z,26.20
2017-08-04T16:45:17.146Z,26.30
2017-08-04T16:47:46.248Z,26.40
2017-08-04T16:50:14.597Z,26.50
2017-08-04T16:52:44.054Z,26.30
2017-08-04T16:55:14.541Z,26.20
2017-08-04T16:57:42.849Z,26.20
2017-08-04T17:00:11.128Z,26.20
2017-08-04T17:02:40.103Z,26.20
2017-08-04T17:05:08.404Z,26.00
2017-08-04T17:07:36.693Z,25.80
2017-08-04T17:10:06.151Z,25.70
2017-08-04T17:12:34.854Z,25.70
2017-08-04T17:15:04.216Z,25.60
2017-08-04T17:17:33.296Z,25.60
2017-08-04T17:20:01.860Z,25.60
2017-08-04T17:22:31.036Z,25.50
2017-08-04T17:24:59.364Z,25.40
2017-08-04T17:27:27.664Z,25.30
2017-08-04T17:29:56.735Z,25.10
2017-08-04T17:32:25.301Z,25.10
2017-08-04T17:34:53.915Z,25.00
2017-08-04T17:37:22.178Z,24.90
2017-08-04T17:39:50.501Z,24.80
2017-08-04T17:42:18.848Z,24.70
2017-08-04T17:44:47.492Z,24.70
2017-08-04T17:47:15.885Z,24.60
2017-08-04T17:49:44.508Z,24.40
2017-08-04T17:52:13.133Z,24.40
2017-08-04T17:54:41.600Z,24.30
2017-08-04T17:57:10.689Z,24.10
2017-08-04T17:59:39.297Z,24.10
2017-08-04T18:02:07.933Z,23.90
2017-08-04T18:04:36.202Z,23.90
2017-08-04T18:07:04.873Z,23.80
2017-08-04T18:09:35.723Z,23.70
2017-08-04T18:12:04.754Z,23.70
2017-08-04T18:14:33.688Z,23.60
2017-08-04T18:17:01.998Z,23.50
2017-08-04T18:19:31.405Z,23.40
2017-08-04T18:22:01.303Z,23.30
2017-08-04T18:24:29.979Z,23.40
2017-08-04T18:26:58.601Z,23.30
2017-08-04T18:29:28.069Z,23.20
2017-08-04T18:31:56.404Z,23.20
2017-08-04T18:34:25.785Z,23.10
2017-08-04T18:36:54.891Z,23.00
2017-08-04T18:39:23.144Z,23.00
2017-08-04T18:41:51.760Z,22.90
2017-08-04T18:44:20.081Z,22.80
2017-08-04T18:46:48.360Z,22.80
2017-08-04T18:49:16.920Z,22.70
2017-08-04T18:51:45.981Z,22.60
2017-08-04T18:54:15.515Z,22.60
2017-08-04T18:56:44.078Z,22.50
2017-08-04T18:59:12.387Z,22.50
2017-08-04T19:01:41.459Z,22.30
2017-08-04T19:04:10.062Z,22.30
2017-08-04T19:06:38.498Z,22.30
2017-08-04T19:09:06.820Z,22.20
2017-08-04T19:11:35.423Z,22.20
2017-08-04T19:14:04.483Z,22.10
2017-08-04T19:16:32.787Z,22.00
2017-08-04T19:19:01.576Z,22.10
2017-08-04T19:21:29.898Z,22.00
2017-08-04T19:23:59.059Z,21.90
2017-08-04T19:26:27.632Z,21.90
2017-08-04T19:28:55.950Z,21.90
2017-08-04T19:31:25.278Z,21.80
2017-08-04T19:33:53.930Z,21.80
2017-08-04T19:36:26.678Z,21.70
2017-08-04T19:38:56.922Z,21.70
2017-08-04T19:41:25.225Z,21.70
2017-08-04T19:43:53.500Z,21.70
2017-08-04T19:46:22.803Z,21.70
2017-08-04T19:48:51.349Z,21.60
2017-08-04T19:51:19.658Z,21.60
2017-08-04T19:53:48.311Z,21.50
2017-08-04T19:56:17.400Z,21.50
2017-08-04T19:58:49.924Z,21.40
2017-08-04T20:01:18.317Z,21.40
2017-08-04T20:03:46.621Z,21.40
2017-08-04T20:06:15.302Z,21.40
2017-08-04T20:08:43.568Z,21.30
2017-08-04T20:11:11.852Z,21.20
2017-08-04T20:13:40.419Z,21.30
2017-08-04T20:16:08.721Z,21.20
2017-08-04T20:18:37.042Z,21.30
2017-08-04T20:21:06.444Z,21.20
2017-08-04T20:23:35.641Z,21.20
2017-08-04T20:26:04.711Z,21.30
2017-08-04T20:28:33.280Z,21.30
2017-08-04T20:31:01.584Z,21.30
2017-08-04T20:33:30.504Z,21.40
2017-08-04T20:35:59.908Z,21.40
2017-08-04T20:38:28.187Z,21.40
2017-08-04T20:40:56.801Z,21.40
2017-08-04T20:43:26.143Z,21.50
2017-08-04T20:45:54.425Z,21.50
2017-08-04T20:48:22.747Z,21.50
2017-08-04T20:50:51.971Z,21.60
2017-08-04T20:53:21.058Z,21.60
2017-08-04T20:55:49.347Z,21.60
2017-08-04T20:58:18.026Z,21.60
2017-08-04T21:00:46.314Z,21.50
2017-08-04T21:03:15.352Z,21.60
2017-08-04T21:05:44.746Z,21.50
2017-08-04T21:08:13.071Z,21.50
2017-08-04T21:10:41.371Z,21.50
2017-08-04T21:13:09.934Z,21.50
2017-08-04T21:15:38.207Z,21.50
2017-08-04T21:18:06.513Z,21.50
2017-08-04T21:20:35.097Z,21.50
2017-08-04T21:23:05.450Z,21.50
2017-08-04T21:25:34.739Z,21.50
2017-08-04T21:28:04.246Z,21.40
2017-08-04T21:30:32.574Z,21.40
2017-08-04T21:33:00.888Z,21.40
2017-08-04T21:35:29.474Z,21.40
2017-08-04T21:37:58.411Z,21.40
2017-08-04T21:40:27.024Z,21.30
2017-08-04T21:42:55.657Z,21.30
2017-08-04T21:45:23.971Z,21.20
2017-08-04T21:47:52.783Z,21.10
2017-08-04T21:50:21.546Z,21.10
2017-08-04T21:52:49.806Z,21.00
2017-08-04T21:55:18.831Z,20.90
2017-08-04T21:57:47.565Z,20.80
2017-08-04T22:00:17.014Z,20.80
2017-08-04T22:02:45.324Z,20.70
2017-08-04T22:05:13.998Z,20.60
2017-08-04T22:07:42.315Z,20.60
2017-08-04T22:10:11.600Z,20.50
2017-08-04T22:12:40.973Z,20.40
2017-08-04T22:15:09.284Z,20.40
2017-08-04T22:17:37.558Z,20.40
2017-08-04T22:20:06.962Z,20.30
2017-08-04T22:22:35.224Z,20.30
2017-08-04T22:25:03.605Z,20.20
2017-08-04T22:27:32.248Z,20.20
2017-08-04T22:30:00.700Z,20.20
2017-08-04T22:32:29.724Z,20.20
2017-08-04T22:34:59.211Z,20.20
2017-08-04T22:37:27.504Z,20.10
2017-08-04T22:39:55.836Z,20.20
2017-08-04T22:42:24.392Z,20.20
2017-08-04T22:44:53.653Z,20.30
2017-08-04T22:47:21.951Z,20.30
2017-08-04T22:49:50.527Z,20.40
2017-08-04T22:52:18.867Z,20.40
2017-08-04T22:54:47.130Z,20.40
2017-08-04T22:57:15.765Z,20.40
2017-08-04T22:59:44.070Z,20.40
2017-08-04T23:02:12.705Z,20.40
2017-08-04T23:04:41.604Z,20.50
2017-08-04T23:07:09.908Z,20.50
2017-08-04T23:09:38.225Z,20.50
2017-08-04T23:12:07.579Z,20.50
2017-08-04T23:14:36.002Z,20.50
2017-08-04T23:17:04.362Z,20.40
2017-08-04T23:19:33.172Z,20.40
2017-08-04T23:22:01.430Z,20.40
2017-08-04T23:24:30.711Z,20.30
2017-08-04T23:27:00.157Z,20.10
2017-08-04T23:29:29.863Z,20.10
2017-08-04T23:31:59.179Z,20.00
2017-08-04T23:34:27.766Z,20.00
2017-08-04T23:36:56.080Z,19.90
2017-08-04T23:39:25.161Z,19.80
2017-08-04T23:41:54.689Z,19.80
2017-08-04T23:44:24.305Z,19.70
2017-08-04T23:46:53.388Z,19.60
2017-08-04T23:49:22.191Z,19.60
2017-08-04T23:51:51.361Z,19.60
2017-08-04T23:54:19.674Z,19.50
2017-08-04T23:56:50.094Z,19.50
2017-08-04T23:59:19.165Z,19.50
